Startpagina
METAR-TAF:

METAR-TAF

Vliegvelden :

Productieplatform

Awg-1, Nederland

breedte: 53-29-30N, lengte: 5-56-30E, hoogte: 33 m

Actueel weer

Dit bericht is 23 minuten geleden gemaakt, om 03:55 UTC
Wind 10 kt uit het zuiden
Temperatuur 12°C
Vochtigheid 88%
Druk 1009 hPa
Zicht: 8000 m
Weinig wolken op 400 ft
Gebroken wolken op 600 ft
Gebroken wolken op 2400 ft

METAR: EHMA 260355Z AUTO 19010KT 8000 FEW004 BKN006 BKN024 12/10 Q1009 W///H///

Tijdstip: 06:18 (04:18 UTC)


TAF: ontbreekt

Waarnemingen en weersverwachtingen van meer dan 4000 vliegvelden (METAR en TAF).

De beschikbare stations zijn de gele en rode punten op de kaart.

Ga met uw muis naar het station om de naam te zien.

Klik dan om waarnemingen en weersverwachtingen te zien.

kaart wijzigen: klik op de groene knoppen met een zwart kruis om in te zoomen, op de groene knop met een streepje om uit te zoomen of op de groene pijlen voor aangrenzende kaarten.


METAR-TAF: